sensor_id;sensor_type;location;lat;lon;timestamp;P1;durP1;ratioP1;P2;durP2;ratioP2
47539;SDS011;33280;52.152;21.052;2023-03-11T00:00:30;26.60;;;13.27;;
47539;SDS011;33280;52.152;21.052;2023-03-11T00:02:59;24.93;;;12.90;;
47539;SDS011;33280;52.152;21.052;2023-03-11T00:05:28;24.40;;;13.37;;
47539;SDS011;33280;52.152;21.052;2023-03-11T00:07:59;24.77;;;12.73;;
47539;SDS011;33280;52.152;21.052;2023-03-11T00:10:28;26.60;;;12.53;;
47539;SDS011;33280;52.152;21.052;2023-03-11T00:13:02;26.00;;;12.70;;
47539;SDS011;33280;52.152;21.052;2023-03-11T00:15:30;19.07;;;11.67;;
47539;SDS011;33280;52.152;21.052;2023-03-11T00:17:58;25.03;;;12.50;;
47539;SDS011;33280;52.152;21.052;2023-03-11T00:20:26;23.47;;;12.27;;
47539;SDS011;33280;52.152;21.052;2023-03-11T00:23:11;20.57;;;11.40;;
47539;SDS011;33280;52.152;21.052;2023-03-11T00:25:41;23.93;;;11.93;;
47539;SDS011;33280;52.152;21.052;2023-03-11T00:28:47;23.20;;;12.07;;
47539;SDS011;33280;52.152;21.052;2023-03-11T00:34:48;21.63;;;11.30;;
47539;SDS011;33280;52.152;21.052;2023-03-11T00:37:24;21.00;;;11.90;;
47539;SDS011;33280;52.152;21.052;2023-03-11T00:39:51;22.00;;;11.77;;
47539;SDS011;33280;52.152;21.052;2023-03-11T00:45:03;21.13;;;11.23;;
47539;SDS011;33280;52.152;21.052;2023-03-11T00:47:30;20.70;;;11.60;;
47539;SDS011;33280;52.152;21.052;2023-03-11T00:49:57;23.90;;;11.57;;
47539;SDS011;33280;52.152;21.052;2023-03-11T00:52:24;23.53;;;11.67;;
47539;SDS011;33280;52.152;21.052;2023-03-11T00:54:51;22.07;;;12.07;;
47539;SDS011;33280;52.152;21.052;2023-03-11T00:57:18;23.00;;;11.63;;
47539;SDS011;33280;52.152;21.052;2023-03-11T00:59:44;20.90;;;11.63;;
47539;SDS011;33280;52.152;21.052;2023-03-11T01:02:11;22.90;;;11.73;;
47539;SDS011;33280;52.152;21.052;2023-03-11T01:04:39;21.90;;;11.27;;
47539;SDS011;33280;52.152;21.052;2023-03-11T01:07:07;21.27;;;11.50;;
47539;SDS011;33280;52.152;21.052;2023-03-11T01:09:36;22.60;;;11.40;;
47539;SDS011;33280;52.152;21.052;2023-03-11T01:12:03;22.70;;;11.33;;
47539;SDS011;33280;52.152;21.052;2023-03-11T01:14:30;21.93;;;11.43;;
47539;SDS011;33280;52.152;21.052;2023-03-11T01:16:57;21.40;;;11.13;;
47539;SDS011;33280;52.152;21.052;2023-03-11T01:19:24;23.93;;;10.90;;
47539;SDS011;33280;52.152;21.052;2023-03-11T01:21:51;24.77;;;11.40;;
47539;SDS011;33280;52.152;21.052;2023-03-11T01:24:18;19.83;;;11.07;;
47539;SDS011;33280;52.152;21.052;2023-03-11T01:26:44;25.03;;;11.70;;
47539;SDS011;33280;52.152;21.052;2023-03-11T01:29:11;20.50;;;11.23;;
47539;SDS011;33280;52.152;21.052;2023-03-11T01:31:38;19.80;;;11.33;;
47539;SDS011;33280;52.152;21.052;2023-03-11T01:34:05;21.00;;;11.47;;
47539;SDS011;33280;52.152;21.052;2023-03-11T01:36:32;21.33;;;11.13;;
47539;SDS011;33280;52.152;21.052;2023-03-11T01:38:59;23.00;;;11.57;;
47539;SDS011;33280;52.152;21.052;2023-03-11T01:41:26;23.03;;;11.63;;
47539;SDS011;33280;52.152;21.052;2023-03-11T01:43:53;21.23;;;11.23;;
47539;SDS011;33280;52.152;21.052;2023-03-11T01:46:22;18.40;;;10.83;;
47539;SDS011;33280;52.152;21.052;2023-03-11T01:48:55;21.87;;;11.73;;
47539;SDS011;33280;52.152;21.052;2023-03-11T01:51:43;21.23;;;11.43;;
47539;SDS011;33280;52.152;21.052;2023-03-11T01:54:24;22.10;;;11.20;;
47539;SDS011;33280;52.152;21.052;2023-03-11T01:56:54;20.33;;;10.70;;
47539;SDS011;33280;52.152;21.052;2023-03-11T01:59:23;21.30;;;11.53;;
47539;SDS011;33280;52.152;21.052;2023-03-11T02:01:57;19.87;;;10.90;;
47539;SDS011;33280;52.152;21.052;2023-03-11T02:04:32;20.13;;;11.60;;
47539;SDS011;33280;52.152;21.052;2023-03-11T02:07:01;19.87;;;11.47;;
47539;SDS011;33280;52.152;21.052;2023-03-11T02:09:29;24.67;;;12.37;;
47539;SDS011;33280;52.152;21.052;2023-03-11T02:11:56;24.97;;;12.50;;
47539;SDS011;33280;52.152;21.052;2023-03-11T02:14:23;22.13;;;12.27;;
47539;SDS011;33280;52.152;21.052;2023-03-11T02:16:51;21.30;;;11.60;;
47539;SDS011;33280;52.152;21.052;2023-03-11T02:19:22;29.07;;;12.90;;
47539;SDS011;33280;52.152;21.052;2023-03-11T02:22:00;22.27;;;12.10;;
47539;SDS011;33280;52.152;21.052;2023-03-11T02:27:28;23.73;;;12.03;;
47539;SDS011;33280;52.152;21.052;2023-03-11T02:29:57;24.33;;;12.67;;
47539;SDS011;33280;52.152;21.052;2023-03-11T02:32:26;20.97;;;11.80;;
47539;SDS011;33280;52.152;21.052;2023-03-11T02:34:53;23.40;;;12.03;;
47539;SDS011;33280;52.152;21.052;2023-03-11T02:37:20;21.93;;;12.27;;
47539;SDS011;33280;52.152;21.052;2023-03-11T02:39:48;24.27;;;12.37;;
47539;SDS011;33280;52.152;21.052;2023-03-11T02:42:24;20.03;;;11.40;;
47539;SDS011;33280;52.152;21.052;2023-03-11T02:47:25;21.03;;;11.33;;
47539;SDS011;33280;52.152;21.052;2023-03-11T02:49:53;21.17;;;11.13;;
47539;SDS011;33280;52.152;21.052;2023-03-11T02:52:21;22.77;;;11.13;;
47539;SDS011;33280;52.152;21.052;2023-03-11T02:54:53;23.90;;;11.73;;
47539;SDS011;33280;52.152;21.052;2023-03-11T02:57:20;21.03;;;11.17;;
47539;SDS011;33280;52.152;21.052;2023-03-11T02:59:47;20.40;;;11.50;;
47539;SDS011;33280;52.152;21.052;2023-03-11T03:02:14;21.10;;;10.83;;
47539;SDS011;33280;52.152;21.052;2023-03-11T03:04:41;20.17;;;10.63;;
47539;SDS011;33280;52.152;21.052;2023-03-11T03:07:08;22.40;;;10.90;;
47539;SDS011;33280;52.152;21.052;2023-03-11T03:09:36;18.57;;;10.47;;
47539;SDS011;33280;52.152;21.052;2023-03-11T03:12:03;20.23;;;10.33;;
47539;SDS011;33280;52.152;21.052;2023-03-11T03:14:30;20.37;;;10.03;;
47539;SDS011;33280;52.152;21.052;2023-03-11T03:16:57;18.87;;;10.13;;
47539;SDS011;33280;52.152;21.052;2023-03-11T03:19:24;19.93;;;10.30;;
47539;SDS011;33280;52.152;21.052;2023-03-11T03:21:51;18.37;;;9.93;;
47539;SDS011;33280;52.152;21.052;2023-03-11T03:24:18;18.20;;;10.30;;
47539;SDS011;33280;52.152;21.052;2023-03-11T03:26:45;19.67;;;10.13;;
47539;SDS011;33280;52.152;21.052;2023-03-11T03:29:12;16.87;;;9.50;;
47539;SDS011;33280;52.152;21.052;2023-03-11T03:31:38;21.30;;;10.53;;
47539;SDS011;33280;52.152;21.052;2023-03-11T03:34:05;18.67;;;9.90;;
47539;SDS011;33280;52.152;21.052;2023-03-11T03:36:32;21.83;;;10.30;;
47539;SDS011;33280;52.152;21.052;2023-03-11T03:38:59;18.57;;;9.70;;
47539;SDS011;33280;52.152;21.052;2023-03-11T03:41:27;22.90;;;10.50;;
47539;SDS011;33280;52.152;21.052;2023-03-11T03:43:54;20.00;;;10.07;;
47539;SDS011;33280;52.152;21.052;2023-03-11T03:46:21;21.67;;;10.30;;
47539;SDS011;33280;52.152;21.052;2023-03-11T03:48:49;22.63;;;10.53;;
47539;SDS011;33280;52.152;21.052;2023-03-11T03:51:16;21.23;;;10.53;;
47539;SDS011;33280;52.152;21.052;2023-03-11T03:53:43;22.20;;;10.73;;
47539;SDS011;33280;52.152;21.052;2023-03-11T03:56:13;19.47;;;10.23;;
47539;SDS011;33280;52.152;21.052;2023-03-11T03:58:41;18.80;;;10.13;;
47539;SDS011;33280;52.152;21.052;2023-03-11T04:01:09;19.00;;;9.73;;
47539;SDS011;33280;52.152;21.052;2023-03-11T04:03:37;21.37;;;10.43;;
47539;SDS011;33280;52.152;21.052;2023-03-11T04:08:32;19.93;;;10.33;;
47539;SDS011;33280;52.152;21.052;2023-03-11T04:10:59;19.10;;;10.03;;
47539;SDS011;33280;52.152;21.052;2023-03-11T04:13:26;18.80;;;10.10;;
47539;SDS011;33280;52.152;21.052;2023-03-11T04:15:53;18.37;;;10.17;;
47539;SDS011;33280;52.152;21.052;2023-03-11T04:18:20;20.47;;;10.10;;
47539;SDS011;33280;52.152;21.052;2023-03-11T04:20:48;17.97;;;9.67;;
47539;SDS011;33280;52.152;21.052;2023-03-11T04:23:15;18.87;;;10.23;;
47539;SDS011;33280;52.152;21.052;2023-03-11T04:25:41;18.63;;;9.57;;
47539;SDS011;33280;52.152;21.052;2023-03-11T04:28:08;17.37;;;9.40;;
47539;SDS011;33280;52.152;21.052;2023-03-11T04:30:35;19.33;;;9.97;;
47539;SDS011;33280;52.152;21.052;2023-03-11T04:33:02;19.70;;;9.50;;
47539;SDS011;33280;52.152;21.052;2023-03-11T04:35:29;18.83;;;9.80;;
47539;SDS011;33280;52.152;21.052;2023-03-11T04:37:56;18.83;;;9.60;;
47539;SDS011;33280;52.152;21.052;2023-03-11T04:40:23;18.07;;;8.93;;
47539;SDS011;33280;52.152;21.052;2023-03-11T04:42:49;18.63;;;9.50;;
47539;SDS011;33280;52.152;21.052;2023-03-11T04:45:18;17.07;;;8.57;;
47539;SDS011;33280;52.152;21.052;2023-03-11T04:47:48;17.97;;;9.70;;
47539;SDS011;33280;52.152;21.052;2023-03-11T04:50:17;17.37;;;9.10;;
47539;SDS011;33280;52.152;21.052;2023-03-11T04:52:44;15.93;;;9.17;;
47539;SDS011;33280;52.152;21.052;2023-03-11T04:55:11;15.27;;;8.73;;
47539;SDS011;33280;52.152;21.052;2023-03-11T04:57:39;16.27;;;8.90;;
47539;SDS011;33280;52.152;21.052;2023-03-11T05:00:08;17.53;;;8.83;;
47539;SDS011;33280;52.152;21.052;2023-03-11T05:02:37;15.37;;;8.77;;
47539;SDS011;33280;52.152;21.052;2023-03-11T05:05:05;15.43;;;8.53;;
47539;SDS011;33280;52.152;21.052;2023-03-11T05:07:33;15.37;;;8.43;;
47539;SDS011;33280;52.152;21.052;2023-03-11T05:10:02;16.50;;;8.57;;
47539;SDS011;33280;52.152;21.052;2023-03-11T05:12:29;15.90;;;8.30;;
47539;SDS011;33280;52.152;21.052;2023-03-11T05:14:56;13.83;;;8.10;;
47539;SDS011;33280;52.152;21.052;2023-03-11T05:17:24;15.23;;;8.00;;
47539;SDS011;33280;52.152;21.052;2023-03-11T05:19:53;15.67;;;8.00;;
47539;SDS011;33280;52.152;21.052;2023-03-11T05:22:20;13.57;;;7.60;;
47539;SDS011;33280;52.152;21.052;2023-03-11T05:24:47;14.27;;;7.33;;
47539;SDS011;33280;52.152;21.052;2023-03-11T05:27:15;17.07;;;7.67;;
47539;SDS011;33280;52.152;21.052;2023-03-11T05:29:43;14.07;;;7.50;;
47539;SDS011;33280;52.152;21.052;2023-03-11T05:32:24;13.47;;;7.60;;
47539;SDS011;33280;52.152;21.052;2023-03-11T05:34:51;13.07;;;7.53;;
47539;SDS011;33280;52.152;21.052;2023-03-11T05:37:18;13.00;;;7.40;;
47539;SDS011;33280;52.152;21.052;2023-03-11T05:39:45;16.47;;;7.47;;
47539;SDS011;33280;52.152;21.052;2023-03-11T05:42:12;13.10;;;7.10;;
47539;SDS011;33280;52.152;21.052;2023-03-11T05:44:38;15.30;;;7.63;;
47539;SDS011;33280;52.152;21.052;2023-03-11T05:47:06;13.60;;;7.20;;
47539;SDS011;33280;52.152;21.052;2023-03-11T05:49:33;12.57;;;6.83;;
47539;SDS011;33280;52.152;21.052;2023-03-11T05:52:00;13.13;;;6.80;;
47539;SDS011;33280;52.152;21.052;2023-03-11T05:54:27;10.73;;;6.20;;
47539;SDS011;33280;52.152;21.052;2023-03-11T05:56:54;12.43;;;6.53;;
47539;SDS011;33280;52.152;21.052;2023-03-11T05:59:21;12.20;;;6.80;;
47539;SDS011;33280;52.152;21.052;2023-03-11T06:01:48;13.27;;;6.90;;
47539;SDS011;33280;52.152;21.052;2023-03-11T06:04:15;14.10;;;7.30;;
47539;SDS011;33280;52.152;21.052;2023-03-11T06:06:42;12.73;;;7.07;;
47539;SDS011;33280;52.152;21.052;2023-03-11T06:09:12;17.10;;;7.57;;
47539;SDS011;33280;52.152;21.052;2023-03-11T06:11:40;14.27;;;6.73;;
47539;SDS011;33280;52.152;21.052;2023-03-11T06:14:10;13.10;;;6.83;;
47539;SDS011;33280;52.152;21.052;2023-03-11T06:16:39;11.53;;;6.47;;
47539;SDS011;33280;52.152;21.052;2023-03-11T06:19:07;10.70;;;6.50;;
47539;SDS011;33280;52.152;21.052;2023-03-11T06:21:34;13.20;;;6.70;;
47539;SDS011;33280;52.152;21.052;2023-03-11T06:24:01;11.63;;;6.50;;
47539;SDS011;33280;52.152;21.052;2023-03-11T06:26:28;10.03;;;6.10;;
47539;SDS011;33280;52.152;21.052;2023-03-11T06:28:55;10.00;;;5.70;;
47539;SDS011;33280;52.152;21.052;2023-03-11T06:31:23;10.47;;;5.93;;
47539;SDS011;33280;52.152;21.052;2023-03-11T06:33:52;11.77;;;6.00;;
47539;SDS011;33280;52.152;21.052;2023-03-11T06:36:24;9.53;;;6.00;;
47539;SDS011;33280;52.152;21.052;2023-03-11T06:38:51;11.37;;;5.37;;
47539;SDS011;33280;52.152;21.052;2023-03-11T06:41:19;9.60;;;5.33;;
47539;SDS011;33280;52.152;21.052;2023-03-11T06:43:47;9.73;;;5.30;;
47539;SDS011;33280;52.152;21.052;2023-03-11T06:46:16;9.37;;;5.43;;
47539;SDS011;33280;52.152;21.052;2023-03-11T06:48:44;8.93;;;5.63;;
47539;SDS011;33280;52.152;21.052;2023-03-11T06:51:12;12.30;;;5.93;;
47539;SDS011;33280;52.152;21.052;2023-03-11T06:53:39;10.43;;;5.80;;
47539;SDS011;33280;52.152;21.052;2023-03-11T06:56:07;9.23;;;5.30;;
47539;SDS011;33280;52.152;21.052;2023-03-11T06:58:36;8.53;;;5.57;;
47539;SDS011;33280;52.152;21.052;2023-03-11T07:01:05;9.37;;;5.80;;
47539;SDS011;33280;52.152;21.052;2023-03-11T07:03:45;8.67;;;5.57;;
47539;SDS011;33280;52.152;21.052;2023-03-11T07:06:13;9.73;;;5.80;;
47539;SDS011;33280;52.152;21.052;2023-03-11T07:08:42;10.20;;;5.70;;
47539;SDS011;33280;52.152;21.052;2023-03-11T07:11:11;10.03;;;6.37;;
47539;SDS011;33280;52.152;21.052;2023-03-11T07:13:59;9.80;;;6.60;;
47539;SDS011;33280;52.152;21.052;2023-03-11T07:16:27;10.50;;;6.87;;
47539;SDS011;33280;52.152;21.052;2023-03-11T07:18:56;10.77;;;6.50;;
47539;SDS011;33280;52.152;21.052;2023-03-11T07:21:27;10.27;;;6.63;;
47539;SDS011;33280;52.152;21.052;2023-03-11T07:23:55;10.60;;;6.10;;
47539;SDS011;33280;52.152;21.052;2023-03-11T07:26:24;9.90;;;6.67;;
47539;SDS011;33280;52.152;21.052;2023-03-11T07:28:52;10.50;;;7.00;;
47539;SDS011;33280;52.152;21.052;2023-03-11T07:31:21;10.83;;;6.70;;
47539;SDS011;33280;52.152;21.052;2023-03-11T07:33:50;10.97;;;6.80;;
47539;SDS011;33280;52.152;21.052;2023-03-11T07:36:21;11.40;;;7.30;;
47539;SDS011;33280;52.152;21.052;2023-03-11T07:38:55;9.93;;;7.27;;
47539;SDS011;33280;52.152;21.052;2023-03-11T07:41:25;11.63;;;7.43;;
47539;SDS011;33280;52.152;21.052;2023-03-11T07:43:53;11.77;;;7.77;;
47539;SDS011;33280;52.152;21.052;2023-03-11T07:46:22;12.90;;;8.30;;
47539;SDS011;33280;52.152;21.052;2023-03-11T07:48:50;12.23;;;8.17;;
47539;SDS011;33280;52.152;21.052;2023-03-11T07:53:45;13.87;;;9.40;;
47539;SDS011;33280;52.152;21.052;2023-03-11T07:56:13;15.37;;;9.57;;
47539;SDS011;33280;52.152;21.052;2023-03-11T07:58:42;14.30;;;9.73;;
47539;SDS011;33280;52.152;21.052;2023-03-11T08:01:12;15.33;;;9.50;;
47539;SDS011;33280;52.152;21.052;2023-03-11T08:03:44;15.40;;;9.37;;
47539;SDS011;33280;52.152;21.052;2023-03-11T08:06:16;13.97;;;9.27;;
47539;SDS011;33280;52.152;21.052;2023-03-11T08:08:45;14.07;;;8.90;;
47539;SDS011;33280;52.152;21.052;2023-03-11T08:11:12;12.80;;;9.30;;
47539;SDS011;33280;52.152;21.052;2023-03-11T08:16:43;11.80;;;8.73;;
47539;SDS011;33280;52.152;21.052;2023-03-11T08:19:11;12.67;;;8.73;;
47539;SDS011;33280;52.152;21.052;2023-03-11T08:21:38;14.70;;;9.47;;
47539;SDS011;33280;52.152;21.052;2023-03-11T08:24:05;15.90;;;10.10;;
47539;SDS011;33280;52.152;21.052;2023-03-11T08:26:32;15.03;;;10.07;;
47539;SDS011;33280;52.152;21.052;2023-03-11T08:28:59;14.63;;;9.93;;
47539;SDS011;33280;52.152;21.052;2023-03-11T08:31:27;15.70;;;9.77;;
47539;SDS011;33280;52.152;21.052;2023-03-11T08:33:57;13.37;;;10.03;;
47539;SDS011;33280;52.152;21.052;2023-03-11T08:36:33;12.27;;;9.20;;
47539;SDS011;33280;52.152;21.052;2023-03-11T08:39:00;14.97;;;9.90;;
47539;SDS011;33280;52.152;21.052;2023-03-11T08:41:27;14.00;;;9.33;;
47539;SDS011;33280;52.152;21.052;2023-03-11T08:43:54;13.17;;;9.53;;
47539;SDS011;33280;52.152;21.052;2023-03-11T08:46:26;13.50;;;9.50;;
47539;SDS011;33280;52.152;21.052;2023-03-11T08:48:58;14.93;;;9.93;;
47539;SDS011;33280;52.152;21.052;2023-03-11T08:51:27;15.17;;;10.00;;
47539;SDS011;33280;52.152;21.052;2023-03-11T08:53:55;16.77;;;11.10;;
47539;SDS011;33280;52.152;21.052;2023-03-11T08:56:23;18.90;;;11.10;;
47539;SDS011;33280;52.152;21.052;2023-03-11T08:58:53;17.67;;;12.13;;
47539;SDS011;33280;52.152;21.052;2023-03-11T09:01:20;19.40;;;12.53;;
47539;SDS011;33280;52.152;21.052;2023-03-11T09:03:49;19.47;;;12.47;;
47539;SDS011;33280;52.152;21.052;2023-03-11T09:06:17;19.30;;;11.87;;
47539;SDS011;33280;52.152;21.052;2023-03-11T09:08:45;20.17;;;12.47;;
47539;SDS011;33280;52.152;21.052;2023-03-11T09:11:13;16.87;;;11.13;;
47539;SDS011;33280;52.152;21.052;2023-03-11T09:13:41;19.17;;;11.90;;
47539;SDS011;33280;52.152;21.052;2023-03-11T09:16:11;16.63;;;11.03;;
47539;SDS011;33280;52.152;21.052;2023-03-11T09:18:39;18.47;;;11.00;;
47539;SDS011;33280;52.152;21.052;2023-03-11T09:21:06;16.70;;;10.80;;
47539;SDS011;33280;52.152;21.052;2023-03-11T09:23:33;17.27;;;10.57;;
47539;SDS011;33280;52.152;21.052;2023-03-11T09:26:00;14.47;;;9.43;;
47539;SDS011;33280;52.152;21.052;2023-03-11T09:28:29;15.60;;;9.17;;
47539;SDS011;33280;52.152;21.052;2023-03-11T09:30:56;14.73;;;8.87;;
47539;SDS011;33280;52.152;21.052;2023-03-11T09:33:37;14.30;;;8.93;;
47539;SDS011;33280;52.152;21.052;2023-03-11T09:36:12;15.73;;;8.93;;
47539;SDS011;33280;52.152;21.052;2023-03-11T09:38:41;14.43;;;9.20;;
47539;SDS011;33280;52.152;21.052;2023-03-11T09:44:49;18.63;;;10.03;;
47539;SDS011;33280;52.152;21.052;2023-03-11T09:54:40;22.67;;;13.47;;
47539;SDS011;33280;52.152;21.052;2023-03-11T09:57:12;23.67;;;13.27;;
47539;SDS011;33280;52.152;21.052;2023-03-11T09:59:43;28.40;;;15.10;;
47539;SDS011;33280;52.152;21.052;2023-03-11T10:02:15;35.20;;;17.37;;
47539;SDS011;33280;52.152;21.052;2023-03-11T10:04:56;29.13;;;14.23;;
47539;SDS011;33280;52.152;21.052;2023-03-11T10:07:46;29.10;;;14.10;;
47539;SDS011;33280;52.152;21.052;2023-03-11T10:10:22;32.83;;;15.67;;
47539;SDS011;33280;52.152;21.052;2023-03-11T10:12:53;33.63;;;16.23;;
47539;SDS011;33280;52.152;21.052;2023-03-11T10:15:45;35.50;;;17.33;;
47539;SDS011;33280;52.152;21.052;2023-03-11T10:27:09;41.17;;;18.57;;
47539;SDS011;33280;52.152;21.052;2023-03-11T10:32:16;32.40;;;15.20;;
47539;SDS011;33280;52.152;21.052;2023-03-11T10:34:46;29.97;;;14.93;;
47539;SDS011;33280;52.152;21.052;2023-03-11T10:37:25;29.03;;;14.40;;
47539;SDS011;33280;52.152;21.052;2023-03-11T10:42:52;21.10;;;11.20;;
47539;SDS011;33280;52.152;21.052;2023-03-11T10:45:21;19.67;;;10.50;;
47539;SDS011;33280;52.152;21.052;2023-03-11T10:47:49;15.13;;;8.90;;
47539;SDS011;33280;52.152;21.052;2023-03-11T10:50:17;13.63;;;8.10;;
47539;SDS011;33280;52.152;21.052;2023-03-11T10:53:02;10.77;;;7.03;;
47539;SDS011;33280;52.152;21.052;2023-03-11T10:55:32;11.47;;;6.93;;
47539;SDS011;33280;52.152;21.052;2023-03-11T10:58:03;12.23;;;7.17;;
47539;SDS011;33280;52.152;21.052;2023-03-11T11:00:32;11.83;;;7.30;;
47539;SDS011;33280;52.152;21.052;2023-03-11T11:02:59;13.53;;;7.50;;
47539;SDS011;33280;52.152;21.052;2023-03-11T11:05:31;11.33;;;7.60;;
47539;SDS011;33280;52.152;21.052;2023-03-11T11:08:21;11.73;;;7.80;;
47539;SDS011;33280;52.152;21.052;2023-03-11T11:10:56;13.93;;;8.27;;
47539;SDS011;33280;52.152;21.052;2023-03-11T11:13:26;14.03;;;8.70;;
47539;SDS011;33280;52.152;21.052;2023-03-11T11:16:00;15.30;;;9.60;;
47539;SDS011;33280;52.152;21.052;2023-03-11T11:21:30;11.80;;;8.27;;
47539;SDS011;33280;52.152;21.052;2023-03-11T11:24:12;12.63;;;7.83;;
47539;SDS011;33280;52.152;21.052;2023-03-11T11:29:40;9.73;;;7.20;;
47539;SDS011;33280;52.152;21.052;2023-03-11T11:35:03;10.87;;;7.10;;
47539;SDS011;33280;52.152;21.052;2023-03-11T11:37:47;10.50;;;7.03;;
47539;SDS011;33280;52.152;21.052;2023-03-11T11:42:56;7.17;;;5.40;;
47539;SDS011;33280;52.152;21.052;2023-03-11T11:45:28;5.50;;;4.50;;
47539;SDS011;33280;52.152;21.052;2023-03-11T11:48:11;6.17;;;4.70;;
47539;SDS011;33280;52.152;21.052;2023-03-11T11:50:55;6.47;;;4.80;;
47539;SDS011;33280;52.152;21.052;2023-03-11T11:53:41;7.57;;;4.73;;
47539;SDS011;33280;52.152;21.052;2023-03-11T11:56:15;5.97;;;4.53;;
47539;SDS011;33280;52.152;21.052;2023-03-11T11:58:41;6.07;;;4.83;;
47539;SDS011;33280;52.152;21.052;2023-03-11T12:01:13;6.33;;;4.90;;
47539;SDS011;33280;52.152;21.052;2023-03-11T12:04:07;6.23;;;5.00;;
47539;SDS011;33280;52.152;21.052;2023-03-11T12:06:30;7.07;;;5.33;;
47539;SDS011;33280;52.152;21.052;2023-03-11T12:09:29;6.50;;;5.03;;
47539;SDS011;33280;52.152;21.052;2023-03-11T12:15:16;8.93;;;5.93;;
47539;SDS011;33280;52.152;21.052;2023-03-11T12:17:52;7.53;;;5.57;;
47539;SDS011;33280;52.152;21.052;2023-03-11T12:20:57;9.30;;;6.73;;
47539;SDS011;33280;52.152;21.052;2023-03-11T12:26:20;10.40;;;7.30;;
47539;SDS011;33280;52.152;21.052;2023-03-11T12:28:52;10.60;;;7.50;;
47539;SDS011;33280;52.152;21.052;2023-03-11T12:31:24;11.90;;;8.23;;
47539;SDS011;33280;52.152;21.052;2023-03-11T12:33:55;11.60;;;8.20;;
47539;SDS011;33280;52.152;21.052;2023-03-11T12:36:29;11.80;;;8.13;;
47539;SDS011;33280;52.152;21.052;2023-03-11T12:39:04;12.13;;;8.13;;
47539;SDS011;33280;52.152;21.052;2023-03-11T12:41:35;13.90;;;8.13;;
47539;SDS011;33280;52.152;21.052;2023-03-11T12:59:51;11.03;;;6.70;;
47539;SDS011;33280;52.152;21.052;2023-03-11T13:05:30;9.33;;;6.50;;
47539;SDS011;33280;52.152;21.052;2023-03-11T13:08:23;13.73;;;7.40;;
47539;SDS011;33280;52.152;21.052;2023-03-11T13:10:53;9.80;;;6.90;;
47539;SDS011;33280;52.152;21.052;2023-03-11T13:13:40;10.03;;;6.27;;
47539;SDS011;33280;52.152;21.052;2023-03-11T13:18:41;9.13;;;6.57;;
47539;SDS011;33280;52.152;21.052;2023-03-11T13:29:34;11.00;;;6.83;;
47539;SDS011;33280;52.152;21.052;2023-03-11T13:32:40;9.83;;;6.80;;
47539;SDS011;33280;52.152;21.052;2023-03-11T13:43:09;10.90;;;7.00;;
47539;SDS011;33280;52.152;21.052;2023-03-11T13:45:51;10.80;;;6.90;;
47539;SDS011;33280;52.152;21.052;2023-03-11T13:48:52;12.23;;;7.57;;
47539;SDS011;33280;52.152;21.052;2023-03-11T13:51:35;13.60;;;8.43;;
47539;SDS011;33280;52.152;21.052;2023-03-11T13:56:55;11.83;;;7.67;;
47539;SDS011;33280;52.152;21.052;2023-03-11T13:59:28;13.50;;;8.00;;
47539;SDS011;33280;52.152;21.052;2023-03-11T14:02:10;10.50;;;7.03;;
47539;SDS011;33280;52.152;21.052;2023-03-11T14:04:47;11.33;;;7.20;;
47539;SDS011;33280;52.152;21.052;2023-03-11T14:09:45;11.50;;;7.73;;
47539;SDS011;33280;52.152;21.052;2023-03-11T14:12:12;12.07;;;7.50;;
47539;SDS011;33280;52.152;21.052;2023-03-11T14:17:21;12.57;;;7.77;;
47539;SDS011;33280;52.152;21.052;2023-03-11T14:20:10;10.63;;;7.33;;
47539;SDS011;33280;52.152;21.052;2023-03-11T14:22:43;13.53;;;7.03;;
47539;SDS011;33280;52.152;21.052;2023-03-11T14:25:17;11.50;;;6.83;;
47539;SDS011;33280;52.152;21.052;2023-03-11T14:27:53;12.27;;;6.90;;
47539;SDS011;33280;52.152;21.052;2023-03-11T14:30:30;12.63;;;6.90;;
47539;SDS011;33280;52.152;21.052;2023-03-11T14:33:11;10.60;;;6.53;;
47539;SDS011;33280;52.152;21.052;2023-03-11T14:35:55;11.67;;;6.30;;
47539;SDS011;33280;52.152;21.052;2023-03-11T14:38:26;9.23;;;6.00;;
47539;SDS011;33280;52.152;21.052;2023-03-11T14:40:57;12.27;;;7.03;;
47539;SDS011;33280;52.152;21.052;2023-03-11T14:43:36;11.07;;;6.37;;
47539;SDS011;33280;52.152;21.052;2023-03-11T14:46:06;11.93;;;7.03;;
47539;SDS011;33280;52.152;21.052;2023-03-11T14:51:18;12.60;;;6.70;;
47539;SDS011;33280;52.152;21.052;2023-03-11T14:53:55;9.93;;;6.10;;
47539;SDS011;33280;52.152;21.052;2023-03-11T14:56:25;12.63;;;5.93;;
47539;SDS011;33280;52.152;21.052;2023-03-11T14:58:59;9.80;;;6.17;;
47539;SDS011;33280;52.152;21.052;2023-03-11T15:01:38;14.00;;;6.03;;
47539;SDS011;33280;52.152;21.052;2023-03-11T15:04:11;8.50;;;5.40;;
47539;SDS011;33280;52.152;21.052;2023-03-11T15:06:52;10.73;;;4.93;;
47539;SDS011;33280;52.152;21.052;2023-03-11T15:09:21;9.80;;;5.03;;
47539;SDS011;33280;52.152;21.052;2023-03-11T15:17:15;7.70;;;4.67;;
47539;SDS011;33280;52.152;21.052;2023-03-11T15:20:29;8.77;;;4.40;;
47539;SDS011;33280;52.152;21.052;2023-03-11T15:22:58;7.23;;;4.53;;
47539;SDS011;33280;52.152;21.052;2023-03-11T15:25:28;7.43;;;4.70;;
47539;SDS011;33280;52.152;21.052;2023-03-11T15:28:20;6.83;;;4.30;;
47539;SDS011;33280;52.152;21.052;2023-03-11T15:31:14;7.40;;;4.20;;
47539;SDS011;33280;52.152;21.052;2023-03-11T15:33:47;6.47;;;4.07;;
47539;SDS011;33280;52.152;21.052;2023-03-11T15:36:27;8.27;;;4.43;;
47539;SDS011;33280;52.152;21.052;2023-03-11T15:42:00;7.57;;;4.10;;
47539;SDS011;33280;52.152;21.052;2023-03-11T15:47:02;5.33;;;3.60;;
47539;SDS011;33280;52.152;21.052;2023-03-11T15:49:29;5.47;;;3.50;;
47539;SDS011;33280;52.152;21.052;2023-03-11T15:51:57;6.00;;;3.17;;
47539;SDS011;33280;52.152;21.052;2023-03-11T15:54:25;6.23;;;3.30;;
47539;SDS011;33280;52.152;21.052;2023-03-11T15:56:52;6.10;;;3.30;;
47539;SDS011;33280;52.152;21.052;2023-03-11T15:59:20;5.23;;;3.50;;
47539;SDS011;33280;52.152;21.052;2023-03-11T16:01:48;5.33;;;3.33;;
47539;SDS011;33280;52.152;21.052;2023-03-11T16:04:16;6.07;;;3.53;;
47539;SDS011;33280;52.152;21.052;2023-03-11T16:06:45;4.97;;;3.30;;
47539;SDS011;33280;52.152;21.052;2023-03-11T16:09:28;7.47;;;4.10;;
47539;SDS011;33280;52.152;21.052;2023-03-11T16:11:57;4.20;;;3.30;;
47539;SDS011;33280;52.152;21.052;2023-03-11T16:14:24;5.70;;;3.30;;
47539;SDS011;33280;52.152;21.052;2023-03-11T16:16:51;4.67;;;3.30;;
47539;SDS011;33280;52.152;21.052;2023-03-11T16:19:18;5.37;;;3.40;;
47539;SDS011;33280;52.152;21.052;2023-03-11T16:21:45;4.50;;;3.17;;
47539;SDS011;33280;52.152;21.052;2023-03-11T16:24:18;4.83;;;3.10;;
47539;SDS011;33280;52.152;21.052;2023-03-11T16:26:47;6.13;;;3.50;;
47539;SDS011;33280;52.152;21.052;2023-03-11T16:29:17;3.97;;;3.10;;
47539;SDS011;33280;52.152;21.052;2023-03-11T16:31:45;7.10;;;3.50;;
47539;SDS011;33280;52.152;21.052;2023-03-11T16:34:12;6.17;;;3.40;;
47539;SDS011;33280;52.152;21.052;2023-03-11T16:36:39;5.90;;;3.30;;
47539;SDS011;33280;52.152;21.052;2023-03-11T16:39:06;5.27;;;3.13;;
47539;SDS011;33280;52.152;21.052;2023-03-11T16:41:40;5.00;;;3.07;;